TimeCST,TemperatureF,Dew PointF,Humidity,Sea Level PressureIn,VisibilityMPH,Wind Direction,Wind SpeedMPH,Gust SpeedMPH,PrecipitationIn,Events,Conditions,WindDirDegrees,DateUTC
12:53 AM,43.0,39.0,86,30.20,10.0,Calm,Calm,-,N/A,,Mostly Cloudy,0,2013-01-08 06:53:00
1:53 AM,48.0,41.0,77,30.19,10.0,Calm,Calm,-,N/A,,Overcast,0,2013-01-08 07:53:00
2:53 AM,50.0,39.9,68,30.18,10.0,ENE,4.6,-,N/A,,Overcast,70,2013-01-08 08:53:00
3:53 AM,48.9,39.9,71,30.17,10.0,NE,4.6,-,N/A,,Partly Cloudy,40,2013-01-08 09:53:00
4:53 AM,48.0,42.1,80,30.18,10.0,North,3.5,-,N/A,,Mostly Cloudy,350,2013-01-08 10:53:00
5:38 AM,48.2,42.8,82,30.19,10.0,NNE,3.5,-,N/A,,Mostly Cloudy,30,2013-01-08 11:38:00
5:53 AM,48.9,42.1,77,30.18,10.0,ENE,5.8,-,N/A,,Overcast,70,2013-01-08 11:53:00
6:50 AM,51.8,44.6,76,30.19,10.0,NE,3.5,-,N/A,,Overcast,50,2013-01-08 12:50:00
6:53 AM,51.1,44.1,77,30.20,10.0,NE,3.5,-,N/A,,Overcast,50,2013-01-08 12:53:00
7:15 AM,51.8,44.6,76,30.21,10.0,NE,3.5,-,N/A,,Overcast,40,2013-01-08 13:15:00
7:53 AM,53.1,46.0,77,30.22,10.0,NE,5.8,-,N/A,,Overcast,50,2013-01-08 13:53:00
8:12 AM,53.6,46.4,77,30.23,10.0,ENE,3.5,-,N/A,,Overcast,70,2013-01-08 14:12:00
8:19 AM,53.6,46.4,77,30.24,10.0,ENE,3.5,-,N/A,,Overcast,70,2013-01-08 14:19:00
8:27 AM,53.6,46.4,77,30.24,10.0,ENE,4.6,-,N/A,,Overcast,70,2013-01-08 14:27:00
8:53 AM,55.0,48.0,77,30.24,10.0,East,4.6,-,N/A,,Overcast,80,2013-01-08 14:53:00
9:02 AM,55.4,48.2,77,30.24,10.0,ENE,6.9,-,N/A,,Overcast,70,2013-01-08 15:02:00
9:31 AM,57.2,50.0,77,30.24,10.0,East,8.1,-,N/A,,Overcast,80,2013-01-08 15:31:00
9:53 AM,60.1,51.1,72,30.25,10.0,East,9.2,-,N/A,,Overcast,80,2013-01-08 15:53:00
10:53 AM,62.1,54.0,75,30.23,10.0,East,8.1,-,N/A,,Overcast,90,2013-01-08 16:53:00
11:53 AM,64.9,55.9,73,30.20,10.0,East,8.1,-,N/A,,Overcast,90,2013-01-08 17:53:00
12:03 PM,64.4,55.4,73,30.20,10.0,ESE,5.8,-,N/A,,Overcast,110,2013-01-08 18:03:00
12:53 PM,64.9,55.9,73,30.18,10.0,East,8.1,-,N/A,,Overcast,90,2013-01-08 18:53:00
1:53 PM,64.0,55.9,75,30.17,10.0,East,6.9,-,N/A,,Overcast,90,2013-01-08 19:53:00
2:53 PM,64.9,57.0,75,30.16,10.0,ESE,9.2,-,N/A,,Scattered Clouds,110,2013-01-08 20:53:00
3:04 PM,64.4,57.2,77,30.16,10.0,ESE,6.9,-,N/A,,Mostly Cloudy,110,2013-01-08 21:04:00
3:38 PM,64.4,57.2,77,30.15,10.0,East,9.2,-,N/A,,Scattered Clouds,100,2013-01-08 21:38:00
3:45 PM,64.4,57.2,77,30.15,10.0,East,8.1,-,N/A,,Mostly Cloudy,90,2013-01-08 21:45:00
3:53 PM,64.9,57.0,75,30.16,10.0,East,8.1,-,N/A,,Mostly Cloudy,90,2013-01-08 21:53:00
4:53 PM,64.0,57.0,78,30.14,10.0,ESE,8.1,-,N/A,,Mostly Cloudy,120,2013-01-08 22:53:00
5:53 PM,62.1,55.9,80,30.16,10.0,East,4.6,-,N/A,,Mostly Cloudy,90,2013-01-08 23:53:00
6:09 PM,60.8,55.4,82,30.17,10.0,SE,4.6,-,N/A,,Scattered Clouds,140,2013-01-09 00:09:00
6:41 PM,60.8,55.4,82,30.16,10.0,ESE,5.8,-,N/A,,Mostly Cloudy,110,2013-01-09 00:41:00
6:53 PM,60.1,55.9,86,30.16,10.0,East,5.8,-,N/A,,Mostly Cloudy,100,2013-01-09 00:53:00
7:25 PM,60.8,55.4,82,30.14,10.0,East,9.2,-,N/A,,Overcast,90,2013-01-09 01:25:00
7:53 PM,61.0,55.9,83,30.16,10.0,East,8.1,-,N/A,,Overcast,90,2013-01-09 01:53:00
8:53 PM,62.1,57.9,86,30.17,10.0,East,8.1,-,N/A,,Overcast,100,2013-01-09 02:53:00
9:53 PM,63.0,57.9,84,30.19,10.0,ESE,6.9,-,N/A,,Overcast,110,2013-01-09 03:53:00
10:53 PM,63.0,57.9,84,30.19,10.0,East,8.1,-,N/A,,Overcast,100,2013-01-09 04:53:00
11:53 PM,64.0,57.0,78,30.18,10.0,East,10.4,-,N/A,,Overcast,100,2013-01-09 05:53:00